createdAt,value
2023-09-09T00:00:38.301Z,7.50
2023-09-09T00:03:06.602Z,8.50
2023-09-09T00:05:34.996Z,9.20
2023-09-09T00:15:39.780Z,14.40
2023-09-09T00:18:07.496Z,11.20
2023-09-09T00:20:40.516Z,8.00
2023-09-09T00:23:11.166Z,8.80
2023-09-09T00:25:39.262Z,8.10
2023-09-09T00:28:07.652Z,13.10
2023-09-09T00:30:35.401Z,7.10
2023-09-09T00:33:04.004Z,9.40
2023-09-09T00:35:34.212Z,8.70
2023-09-09T00:38:02.206Z,9.40
2023-09-09T00:40:30.137Z,12.10
2023-09-09T00:42:57.788Z,7.30
2023-09-09T00:45:27.153Z,10.60
2023-09-09T00:47:56.362Z,5.80
2023-09-09T00:50:24.649Z,8.60
2023-09-09T00:52:52.272Z,8.10
2023-09-09T00:55:20.096Z,11.00
2023-09-09T00:57:47.756Z,8.00
2023-09-09T01:00:15.816Z,8.10
2023-09-09T01:02:43.634Z,10.10
2023-09-09T01:05:11.742Z,8.70
2023-09-09T01:07:46.391Z,10.70
2023-09-09T01:10:15.888Z,9.70
2023-09-09T01:12:43.586Z,10.00
2023-09-09T01:15:11.948Z,7.20
2023-09-09T01:17:39.860Z,10.00
2023-09-09T01:20:10.968Z,8.40
2023-09-09T01:22:38.670Z,10.30
2023-09-09T01:25:06.788Z,8.80
2023-09-09T01:27:34.718Z,8.10
2023-09-09T01:30:02.366Z,8.40
2023-09-09T01:32:30.135Z,10.70
2023-09-09T01:34:59.196Z,7.60
2023-09-09T01:37:27.510Z,11.00
2023-09-09T01:39:55.401Z,8.40
2023-09-09T01:42:23.130Z,8.80
2023-09-09T01:44:51.154Z,7.30
2023-09-09T01:47:18.761Z,8.50
2023-09-09T01:49:46.606Z,8.10
2023-09-09T01:52:14.251Z,9.00
2023-09-09T01:54:42.073Z,9.70
2023-09-09T01:57:09.703Z,11.90
2023-09-09T01:59:37.650Z,8.60
2023-09-09T02:02:05.370Z,10.70
2023-09-09T02:04:33.086Z,9.90
2023-09-09T02:07:00.660Z,10.00
2023-09-09T02:09:28.308Z,10.80
2023-09-09T02:11:55.937Z,12.40
2023-09-09T02:14:24.553Z,7.90
2023-09-09T02:16:52.247Z,8.60
2023-09-09T02:19:19.878Z,8.70
2023-09-09T02:21:47.656Z,5.70
2023-09-09T02:24:15.642Z,7.80
2023-09-09T02:26:43.262Z,6.50
2023-09-09T02:29:10.901Z,5.50
2023-09-09T02:31:38.538Z,8.80
2023-09-09T02:34:06.268Z,9.60
2023-09-09T02:36:33.987Z,11.80
2023-09-09T02:39:01.875Z,15.60
2023-09-09T02:41:30.763Z,10.00
2023-09-09T02:43:58.388Z,14.60
2023-09-09T02:46:26.346Z,8.60
2023-09-09T02:48:54.051Z,9.90
2023-09-09T02:51:21.777Z,12.90
2023-09-09T02:53:49.418Z,7.50
2023-09-09T02:56:17.348Z,9.00
2023-09-09T02:58:45.112Z,7.90
2023-09-09T03:01:13.010Z,7.30
2023-09-09T03:03:40.984Z,8.60
2023-09-09T03:06:11.695Z,7.70
2023-09-09T03:08:39.449Z,6.00
2023-09-09T03:11:07.184Z,5.60
2023-09-09T03:13:35.463Z,9.70
2023-09-09T03:16:05.116Z,8.70
2023-09-09T03:18:33.153Z,17.90
2023-09-09T03:21:01.061Z,11.10
2023-09-09T03:23:28.745Z,7.60
2023-09-09T03:25:56.451Z,9.10
2023-09-09T03:28:24.224Z,10.60
2023-09-09T03:30:59.649Z,8.90
2023-09-09T03:33:29.717Z,8.60
2023-09-09T03:35:57.427Z,10.40
2023-09-09T03:38:25.113Z,7.60
2023-09-09T03:40:52.848Z,7.20
2023-09-09T03:43:20.720Z,7.90
2023-09-09T03:45:54.186Z,7.60
2023-09-09T03:48:22.082Z,8.40
2023-09-09T03:50:49.858Z,7.40
2023-09-09T03:53:17.675Z,10.00
2023-09-09T03:55:45.550Z,8.60
2023-09-09T03:58:13.265Z,8.20
2023-09-09T04:00:41.044Z,6.50
2023-09-09T04:03:10.151Z,6.60
2023-09-09T04:05:37.968Z,10.30
2023-09-09T04:08:10.518Z,7.10
2023-09-09T04:10:38.455Z,7.90
2023-09-09T04:13:07.066Z,7.10
2023-09-09T04:15:35.102Z,7.00
2023-09-09T04:18:02.929Z,7.30
2023-09-09T04:20:30.677Z,7.00
2023-09-09T04:22:58.783Z,9.00
2023-09-09T04:25:27.573Z,6.80
2023-09-09T04:27:56.977Z,8.40
2023-09-09T04:30:24.779Z,9.10
2023-09-09T04:32:52.664Z,11.00
2023-09-09T04:35:20.546Z,15.30
2023-09-09T04:37:51.442Z,7.40
2023-09-09T04:40:20.854Z,8.60
2023-09-09T04:42:48.940Z,7.60
2023-09-09T04:45:16.850Z,8.70
2023-09-09T04:47:44.784Z,14.10
2023-09-09T04:50:13.141Z,15.50
2023-09-09T04:52:41.263Z,15.20
2023-09-09T04:55:09.558Z,23.50
2023-09-09T04:57:37.367Z,27.10
2023-09-09T05:00:08.394Z,27.60
2023-09-09T05:02:37.804Z,32.90
2023-09-09T05:05:07.062Z,32.70
2023-09-09T05:07:37.052Z,31.00
2023-09-09T05:10:07.828Z,24.00
2023-09-09T05:12:40.121Z,17.50
2023-09-09T05:15:11.569Z,10.30
2023-09-09T05:17:40.140Z,11.50
2023-09-09T05:20:08.990Z,5.70
2023-09-09T05:22:38.111Z,7.30
2023-09-09T05:25:06.718Z,7.00
2023-09-09T05:27:34.550Z,12.80
2023-09-09T05:30:02.473Z,4.50
2023-09-09T05:32:31.228Z,12.30
2023-09-09T05:34:59.420Z,6.20
2023-09-09T05:37:27.927Z,5.60
2023-09-09T05:39:56.032Z,5.50
2023-09-09T05:42:24.837Z,4.30
2023-09-09T05:44:53.145Z,7.30
2023-09-09T05:47:21.689Z,6.50
2023-09-09T05:49:50.636Z,4.10
2023-09-09T05:52:18.850Z,9.20
2023-09-09T05:54:46.788Z,4.10
2023-09-09T05:57:14.784Z,4.50
2023-09-09T05:59:42.958Z,8.10
2023-09-09T06:02:13.102Z,13.20
2023-09-09T06:04:41.283Z,4.30
2023-09-09T06:07:09.584Z,3.40
2023-09-09T06:09:37.459Z,6.10
2023-09-09T06:12:05.928Z,7.10
2023-09-09T06:14:34.320Z,8.10
2023-09-09T06:17:03.934Z,3.40
2023-09-09T06:19:32.011Z,8.00
2023-09-09T06:22:00.081Z,4.90
2023-09-09T06:24:28.977Z,6.50
2023-09-09T06:26:57.841Z,7.30
2023-09-09T06:29:27.464Z,5.40
2023-09-09T06:31:55.834Z,5.60
2023-09-09T06:34:24.099Z,4.70
2023-09-09T06:36:52.317Z,2.90
2023-09-09T06:39:21.169Z,6.60
2023-09-09T06:41:51.887Z,4.40
2023-09-09T06:44:26.627Z,4.10
2023-09-09T06:46:57.883Z,4.80
2023-09-09T06:49:27.916Z,4.90
2023-09-09T06:51:57.783Z,4.10
2023-09-09T06:54:27.899Z,3.50
2023-09-09T06:56:58.923Z,3.80
2023-09-09T06:59:28.943Z,5.50
2023-09-09T07:01:59.242Z,4.00
2023-09-09T07:04:29.997Z,6.30
2023-09-09T07:07:12.022Z,5.20
2023-09-09T07:09:44.964Z,5.60
2023-09-09T07:12:15.435Z,6.70
2023-09-09T07:14:46.017Z,6.70
2023-09-09T07:17:16.969Z,8.30
2023-09-09T07:19:47.942Z,8.90
2023-09-09T07:22:18.794Z,7.90
2023-09-09T07:24:49.462Z,2.80
2023-09-09T07:27:19.971Z,7.20
2023-09-09T07:29:50.996Z,4.30
2023-09-09T07:32:23.561Z,3.70
2023-09-09T07:34:53.977Z,5.70
2023-09-09T07:37:23.882Z,3.80
2023-09-09T07:47:17.556Z,7.00
2023-09-09T07:57:25.732Z,6.60
2023-09-09T07:59:53.566Z,6.20
2023-09-09T08:02:21.248Z,3.80
2023-09-09T08:04:49.057Z,2.90
2023-09-09T08:07:16.799Z,2.80
2023-09-09T08:09:44.909Z,8.20
2023-09-09T08:12:12.825Z,5.00
2023-09-09T08:14:42.646Z,10.30
2023-09-09T08:17:10.737Z,4.60
2023-09-09T08:19:38.621Z,4.30
2023-09-09T08:22:06.735Z,2.30
2023-09-09T08:24:34.637Z,5.60
2023-09-09T08:27:02.569Z,7.90
2023-09-09T08:29:30.463Z,10.30
2023-09-09T08:31:58.391Z,6.40
2023-09-09T08:34:26.712Z,3.70
2023-09-09T08:36:54.375Z,4.50
2023-09-09T08:39:22.656Z,5.00
2023-09-09T08:42:15.117Z,2.40
2023-09-09T08:45:20.216Z,11.70
2023-09-09T08:55:30.447Z,12.50
2023-09-09T08:57:58.425Z,2.00
2023-09-09T09:00:31.557Z,3.30
2023-09-09T09:05:27.421Z,2.50
2023-09-09T09:07:57.323Z,4.40
2023-09-09T09:10:26.782Z,3.00
2023-09-09T09:12:55.058Z,5.70
2023-09-09T09:15:23.259Z,5.00
2023-09-09T09:25:22.322Z,3.10
2023-09-09T09:35:35.523Z,3.50
2023-09-09T09:38:07.396Z,3.20
2023-09-09T09:40:36.633Z,7.10
2023-09-09T09:43:04.755Z,4.10
2023-09-09T09:47:06.279Z,3.90
2023-09-09T09:49:38.213Z,2.10
2023-09-09T09:52:25.703Z,4.40
2023-09-09T09:54:54.570Z,5.20
2023-09-09T09:57:23.140Z,3.30
2023-09-09T09:59:51.113Z,5.70
2023-09-09T10:02:38.169Z,4.00
2023-09-09T10:05:06.725Z,2.40
2023-09-09T10:07:34.958Z,2.90
2023-09-09T10:10:10.560Z,5.40
2023-09-09T10:12:53.985Z,7.20
2023-09-09T10:17:52.252Z,4.90
2023-09-09T10:20:22.006Z,2.60
2023-09-09T10:22:51.416Z,6.90
2023-09-09T10:25:19.949Z,2.40
2023-09-09T10:27:47.822Z,7.10
2023-09-09T10:30:15.614Z,3.50
2023-09-09T10:32:43.456Z,3.90
2023-09-09T10:35:11.580Z,4.20
2023-09-09T10:37:39.551Z,2.20
2023-09-09T10:40:09.263Z,4.30
2023-09-09T10:42:41.251Z,4.10
2023-09-09T10:45:25.370Z,6.80
2023-09-09T10:55:37.524Z,4.00
2023-09-09T10:58:08.040Z,3.90
2023-09-09T11:00:43.036Z,4.20
2023-09-09T11:03:23.500Z,1.40
2023-09-09T11:05:59.004Z,2.60
2023-09-09T11:08:37.215Z,5.30
2023-09-09T11:11:10.963Z,1.30
2023-09-09T11:13:43.114Z,4.50
2023-09-09T11:16:36.301Z,8.30
2023-09-09T11:19:11.940Z,2.20
2023-09-09T11:21:41.461Z,3.40
2023-09-09T11:24:09.706Z,3.00
2023-09-09T11:26:44.494Z,2.70
2023-09-09T11:29:21.488Z,3.50
2023-09-09T11:31:57.797Z,1.40
2023-09-09T11:34:33.528Z,5.60
2023-09-09T11:37:02.686Z,1.70
2023-09-09T11:39:30.565Z,5.40
2023-09-09T11:41:58.237Z,1.70
2023-09-09T11:44:25.914Z,5.70
2023-09-09T11:46:53.645Z,3.00
2023-09-09T11:49:21.567Z,3.50
2023-09-09T11:51:49.201Z,1.50
2023-09-09T11:54:21.285Z,3.30
2023-09-09T11:56:49.147Z,1.90
2023-09-09T11:59:16.981Z,3.60
2023-09-09T12:01:45.829Z,1.60
2023-09-09T12:04:16.938Z,1.20
2023-09-09T12:06:46.754Z,3.40
2023-09-09T12:09:15.278Z,2.70
2023-09-09T12:11:43.195Z,1.90
2023-09-09T12:14:14.168Z,2.30
2023-09-09T12:16:41.961Z,4.20
2023-09-09T12:19:14.919Z,2.70
2023-09-09T12:21:46.731Z,2.60
2023-09-09T12:24:14.510Z,2.20
2023-09-09T12:26:51.590Z,1.90
2023-09-09T12:29:19.357Z,5.40
2023-09-09T12:31:58.592Z,1.70
2023-09-09T12:34:27.171Z,3.60
2023-09-09T12:41:45.460Z,2.10
2023-09-09T12:44:13.108Z,2.50
2023-09-09T12:46:40.795Z,1.20
2023-09-09T12:49:08.553Z,5.90
2023-09-09T12:51:38.909Z,1.90
2023-09-09T12:54:06.636Z,4.00
2023-09-09T12:56:34.388Z,1.60
2023-09-09T12:59:02.157Z,9.80
2023-09-09T13:01:29.875Z,1.90
2023-09-09T13:03:57.632Z,13.30
2023-09-09T13:06:25.265Z,2.90
2023-09-09T13:08:53.100Z,2.70
2023-09-09T13:11:20.874Z,6.60
2023-09-09T13:13:48.551Z,4.20
2023-09-09T13:16:16.943Z,11.00
2023-09-09T13:18:44.961Z,3.60
2023-09-09T13:21:12.792Z,2.40
2023-09-09T13:23:40.724Z,1.30
2023-09-09T13:26:08.579Z,5.00
2023-09-09T13:28:36.261Z,3.60
2023-09-09T13:31:04.167Z,1.40
2023-09-09T13:33:31.864Z,4.70
2023-09-09T13:36:01.524Z,6.00
2023-09-09T13:38:30.292Z,3.10
2023-09-09T13:40:58.251Z,4.20
2023-09-09T13:43:26.378Z,3.40
2023-09-09T13:45:55.303Z,6.00
2023-09-09T13:48:23.833Z,1.60
2023-09-09T13:50:51.858Z,5.30
2023-09-09T13:53:19.629Z,4.40
2023-09-09T13:55:47.373Z,3.00
2023-09-09T13:58:15.009Z,1.00
2023-09-09T14:00:42.815Z,8.10
2023-09-09T14:03:10.651Z,5.20
2023-09-09T14:05:38.443Z,2.90
2023-09-09T14:08:06.343Z,4.50
2023-09-09T14:10:35.127Z,2.90
2023-09-09T14:13:02.788Z,2.20
2023-09-09T14:15:32.509Z,4.40
2023-09-09T14:18:00.444Z,4.70
2023-09-09T14:20:28.119Z,4.50
2023-09-09T14:22:55.840Z,5.80
2023-09-09T14:25:23.520Z,13.10
2023-09-09T14:27:51.140Z,4.50
2023-09-09T14:30:19.028Z,1.80
2023-09-09T14:32:46.864Z,3.40
2023-09-09T14:35:14.627Z,2.10
2023-09-09T14:37:42.273Z,3.20
2023-09-09T14:40:10.515Z,3.60
2023-09-09T14:42:39.712Z,3.40
2023-09-09T14:45:08.184Z,3.40
2023-09-09T14:47:35.840Z,4.00
2023-09-09T14:50:04.401Z,5.20
2023-09-09T14:52:32.160Z,3.60
2023-09-09T14:54:59.842Z,4.10
2023-09-09T14:57:27.655Z,2.10
2023-09-09T14:59:55.744Z,3.50
2023-09-09T15:02:24.722Z,4.50
2023-09-09T15:04:52.524Z,5.50
2023-09-09T15:07:21.722Z,2.60
2023-09-09T15:09:49.792Z,2.50
2023-09-09T15:12:17.521Z,3.50
2023-09-09T15:14:45.229Z,2.80
2023-09-09T15:17:13.189Z,2.20
2023-09-09T15:19:41.045Z,2.50
2023-09-09T15:22:09.788Z,5.20
2023-09-09T15:24:37.446Z,2.70
2023-09-09T15:27:05.400Z,2.40
2023-09-09T15:29:33.429Z,4.40
2023-09-09T15:32:01.187Z,2.20
2023-09-09T15:34:29.004Z,2.70
2023-09-09T15:36:56.756Z,1.80
2023-09-09T15:39:24.418Z,1.80
2023-09-09T15:41:52.180Z,3.70
2023-09-09T15:44:19.934Z,1.60
2023-09-09T15:46:47.768Z,2.10
2023-09-09T15:49:18.281Z,1.50
2023-09-09T15:51:46.614Z,3.70
2023-09-09T15:54:14.886Z,4.60
2023-09-09T15:56:42.730Z,2.10
2023-09-09T15:59:10.518Z,1.70
2023-09-09T16:01:38.735Z,2.90
2023-09-09T16:04:06.764Z,9.50
2023-09-09T16:06:34.665Z,6.40
2023-09-09T16:09:03.708Z,9.40
2023-09-09T16:11:31.436Z,5.20
2023-09-09T16:14:02.203Z,4.60
2023-09-09T16:16:30.187Z,3.70
2023-09-09T16:18:57.999Z,2.50
2023-09-09T16:21:25.782Z,1.60
2023-09-09T16:23:53.638Z,1.60
2023-09-09T16:26:21.897Z,11.40
2023-09-09T16:28:50.072Z,2.10
2023-09-09T16:31:18.097Z,1.60
2023-09-09T16:33:45.881Z,1.90
2023-09-09T16:36:13.771Z,0.90
2023-09-09T16:38:41.790Z,2.90
2023-09-09T16:41:09.809Z,1.50
2023-09-09T16:43:39.356Z,3.50
2023-09-09T16:46:07.338Z,1.80
2023-09-09T16:48:35.358Z,4.70
2023-09-09T16:51:04.047Z,1.90
2023-09-09T16:53:32.963Z,3.40
2023-09-09T16:56:02.833Z,2.10
2023-09-09T16:58:31.534Z,3.90
2023-09-09T17:00:59.894Z,1.30
2023-09-09T17:03:28.060Z,3.40
2023-09-09T17:05:58.066Z,4.20
2023-09-09T17:08:28.657Z,4.90
2023-09-09T17:10:56.710Z,2.20
2023-09-09T17:13:24.562Z,6.30
2023-09-09T17:15:52.735Z,2.10
2023-09-09T17:18:21.653Z,8.10
2023-09-09T17:20:51.586Z,2.40
2023-09-09T17:23:19.672Z,5.50
2023-09-09T17:25:47.806Z,3.40
2023-09-09T17:28:16.465Z,4.30
2023-09-09T17:30:44.919Z,5.80
2023-09-09T17:33:13.875Z,2.10
2023-09-09T17:35:43.214Z,3.70
2023-09-09T17:38:11.050Z,4.90
2023-09-09T17:40:41.523Z,11.80
2023-09-09T17:43:12.555Z,86.20
2023-09-09T17:45:43.608Z,81.80
2023-09-09T17:48:15.372Z,47.40
2023-09-09T17:50:45.859Z,34.80
2023-09-09T17:53:16.853Z,45.30
2023-09-09T17:55:47.950Z,19.80
2023-09-09T17:58:19.269Z,15.10
2023-09-09T18:00:49.980Z,18.90
2023-09-09T18:03:20.914Z,18.00
2023-09-09T18:05:51.260Z,16.70
2023-09-09T18:08:21.924Z,15.50
2023-09-09T18:10:53.272Z,21.70
2023-09-09T18:13:22.691Z,21.90
2023-09-09T18:15:53.918Z,15.80
2023-09-09T18:18:24.316Z,17.40
2023-09-09T18:20:54.341Z,16.10
2023-09-09T18:23:24.967Z,20.70
2023-09-09T18:25:58.594Z,18.40
2023-09-09T18:28:29.445Z,21.50
2023-09-09T18:31:05.063Z,17.90
2023-09-09T18:33:35.975Z,21.20
2023-09-09T18:36:06.353Z,15.90
2023-09-09T18:38:37.257Z,13.40
2023-09-09T18:47:42.411Z,11.20
2023-09-09T18:50:10.365Z,13.60
2023-09-09T18:52:37.544Z,11.60
2023-09-09T18:55:05.394Z,10.20
2023-09-09T18:57:33.056Z,18.40
2023-09-09T19:00:00.035Z,12.30
2023-09-09T19:02:27.318Z,16.20
2023-09-09T19:04:54.924Z,16.60
2023-09-09T19:07:36.198Z,14.60
2023-09-09T19:10:04.580Z,15.30
2023-09-09T19:12:32.788Z,12.50
2023-09-09T19:15:00.004Z,18.60
2023-09-09T19:17:27.572Z,23.10
2023-09-09T19:19:55.498Z,15.60
2023-09-09T19:22:24.340Z,16.90
2023-09-09T19:24:53.726Z,15.50
2023-09-09T19:27:21.010Z,13.30
2023-09-09T19:29:51.789Z,19.60
2023-09-09T19:32:18.728Z,21.00
2023-09-09T19:34:47.013Z,25.20
2023-09-09T19:37:14.003Z,15.30
2023-09-09T19:39:41.144Z,16.30
2023-09-09T19:42:10.240Z,13.40
2023-09-09T19:44:37.550Z,14.80
2023-09-09T19:47:04.950Z,13.40
2023-09-09T19:49:32.253Z,17.20
2023-09-09T19:51:59.462Z,22.30
2023-09-09T19:54:26.512Z,15.00
2023-09-09T19:56:54.376Z,18.00
2023-09-09T19:59:23.399Z,18.00
2023-09-09T20:01:50.752Z,12.90
2023-09-09T20:04:18.191Z,18.40
2023-09-09T20:06:45.592Z,15.40
2023-09-09T20:09:14.847Z,16.20
2023-09-09T20:11:41.827Z,16.70
2023-09-09T20:14:10.170Z,11.20
2023-09-09T20:16:37.285Z,8.30
2023-09-09T20:19:04.500Z,13.20
2023-09-09T20:21:31.728Z,17.10
2023-09-09T20:23:58.883Z,17.90
2023-09-09T20:26:26.031Z,15.60
2023-09-09T20:28:52.952Z,18.50
2023-09-09T20:31:19.949Z,14.30
2023-09-09T20:33:49.497Z,16.50
2023-09-09T20:36:16.789Z,14.50
2023-09-09T20:38:44.502Z,18.00
2023-09-09T20:41:12.769Z,15.80
2023-09-09T20:43:39.781Z,18.40
2023-09-09T20:46:10.827Z,18.30
2023-09-09T20:48:38.781Z,11.70
2023-09-09T20:51:06.111Z,13.30
2023-09-09T20:53:35.988Z,8.80
2023-09-09T20:56:12.894Z,13.30
2023-09-09T20:58:41.037Z,11.40
2023-09-09T21:01:08.697Z,12.90
2023-09-09T21:03:36.068Z,11.00
2023-09-09T21:06:03.690Z,12.40
2023-09-09T21:08:31.053Z,9.40
2023-09-09T21:10:58.209Z,7.40
2023-09-09T21:13:25.889Z,17.50
2023-09-09T21:15:54.260Z,9.70
2023-09-09T21:18:21.141Z,11.80
2023-09-09T21:20:48.159Z,7.90
2023-09-09T21:23:15.374Z,10.10
2023-09-09T21:25:42.509Z,10.60
2023-09-09T21:28:09.324Z,6.60
2023-09-09T21:30:37.703Z,10.90
2023-09-09T21:33:06.026Z,13.70
2023-09-09T21:35:33.213Z,16.60
2023-09-09T21:38:00.354Z,20.20
2023-09-09T21:40:27.886Z,11.00
2023-09-09T21:42:55.387Z,12.40
2023-09-09T21:45:24.400Z,21.40
2023-09-09T21:47:52.135Z,12.80
2023-09-09T21:50:19.349Z,18.40
2023-09-09T21:52:47.510Z,11.50
2023-09-09T21:55:16.561Z,9.20
2023-09-09T21:57:43.625Z,12.90
2023-09-09T22:00:22.347Z,9.00
2023-09-09T22:04:56.865Z,13.10
2023-09-09T22:07:24.858Z,16.90
2023-09-09T22:09:52.639Z,10.20
2023-09-09T22:12:20.485Z,9.70
2023-09-09T22:14:48.389Z,6.40
2023-09-09T22:17:16.279Z,8.60
2023-09-09T22:19:44.542Z,9.60
2023-09-09T22:22:13.156Z,11.40
2023-09-09T22:24:40.984Z,12.40
2023-09-09T22:27:08.928Z,12.30
2023-09-09T22:29:36.815Z,16.50
2023-09-09T22:32:05.489Z,10.90
2023-09-09T22:41:49.814Z,14.70
2023-09-09T22:51:49.767Z,15.70
2023-09-09T22:54:17.577Z,11.00
2023-09-09T22:56:45.395Z,9.60
2023-09-09T23:06:10.764Z,10.00
2023-09-09T23:08:38.887Z,10.70
2023-09-09T23:18:50.581Z,8.70
2023-09-09T23:21:19.592Z,12.90
2023-09-09T23:23:48.306Z,9.80
2023-09-09T23:34:00.466Z,11.50
2023-09-09T23:36:28.606Z,9.50
2023-09-09T23:38:56.351Z,10.00
2023-09-09T23:41:24.075Z,10.00
2023-09-09T23:43:51.814Z,10.80
2023-09-09T23:46:19.665Z,9.70
2023-09-09T23:48:47.506Z,12.70
2023-09-09T23:51:15.352Z,13.00
2023-09-09T23:53:43.182Z,13.40
2023-09-09T23:56:10.999Z,15.00
2023-09-09T23:58:38.971Z,11.50
